sensor_id;sensor_type;location;lat;lon;timestamp;P1;durP1;ratioP1;P2;durP2;ratioP2
52948;SDS011;38812;50.942;3.644;2023-02-02T00:01:19;22.08;;;4.15;;
52948;SDS011;38812;50.942;3.644;2023-02-02T00:03:45;24.08;;;4.25;;
52948;SDS011;38812;50.942;3.644;2023-02-02T00:06:12;33.10;;;4.65;;
52948;SDS011;38812;50.942;3.644;2023-02-02T00:08:38;29.58;;;5.32;;
52948;SDS011;38812;50.942;3.644;2023-02-02T00:11:04;28.55;;;4.80;;
52948;SDS011;38812;50.942;3.644;2023-02-02T00:13:29;21.40;;;4.47;;
52948;SDS011;38812;50.942;3.644;2023-02-02T00:15:55;24.38;;;3.67;;
52948;SDS011;38812;50.942;3.644;2023-02-02T00:18:20;29.40;;;3.50;;
52948;SDS011;38812;50.942;3.644;2023-02-02T00:20:46;28.02;;;5.47;;
52948;SDS011;38812;50.942;3.644;2023-02-02T00:23:14;25.13;;;3.78;;
52948;SDS011;38812;50.942;3.644;2023-02-02T00:25:41;23.00;;;3.78;;
52948;SDS011;38812;50.942;3.644;2023-02-02T00:28:06;20.50;;;3.75;;
52948;SDS011;38812;50.942;3.644;2023-02-02T00:30:32;17.40;;;3.88;;
52948;SDS011;38812;50.942;3.644;2023-02-02T00:32:57;34.17;;;4.20;;
52948;SDS011;38812;50.942;3.644;2023-02-02T00:35:22;27.05;;;4.20;;
52948;SDS011;38812;50.942;3.644;2023-02-02T00:37:48;29.17;;;4.90;;
52948;SDS011;38812;50.942;3.644;2023-02-02T00:40:13;27.00;;;4.15;;
52948;SDS011;38812;50.942;3.644;2023-02-02T00:42:38;20.15;;;3.40;;
52948;SDS011;38812;50.942;3.644;2023-02-02T00:45:04;22.52;;;3.72;;
52948;SDS011;38812;50.942;3.644;2023-02-02T00:47:43;29.70;;;4.32;;
52948;SDS011;38812;50.942;3.644;2023-02-02T00:50:14;18.08;;;4.07;;
52948;SDS011;38812;50.942;3.644;2023-02-02T00:52:41;26.25;;;3.92;;
52948;SDS011;38812;50.942;3.644;2023-02-02T00:55:07;23.77;;;4.40;;
52948;SDS011;38812;50.942;3.644;2023-02-02T00:57:33;16.85;;;4.57;;
52948;SDS011;38812;50.942;3.644;2023-02-02T00:59:59;23.27;;;5.25;;
52948;SDS011;38812;50.942;3.644;2023-02-02T01:02:24;21.70;;;4.45;;
52948;SDS011;38812;50.942;3.644;2023-02-02T01:04:50;24.40;;;5.40;;
52948;SDS011;38812;50.942;3.644;2023-02-02T01:07:16;21.73;;;3.70;;
52948;SDS011;38812;50.942;3.644;2023-02-02T01:09:41;31.10;;;4.13;;
52948;SDS011;38812;50.942;3.644;2023-02-02T01:12:06;23.17;;;4.05;;
52948;SDS011;38812;50.942;3.644;2023-02-02T01:14:32;23.10;;;3.47;;
52948;SDS011;38812;50.942;3.644;2023-02-02T01:16:57;16.13;;;4.15;;
52948;SDS011;38812;50.942;3.644;2023-02-02T01:19:23;26.10;;;5.38;;
52948;SDS011;38812;50.942;3.644;2023-02-02T01:21:48;25.85;;;5.55;;
52948;SDS011;38812;50.942;3.644;2023-02-02T01:24:15;25.05;;;4.75;;
52948;SDS011;38812;50.942;3.644;2023-02-02T01:26:40;23.90;;;7.72;;
52948;SDS011;38812;50.942;3.644;2023-02-02T01:29:05;29.50;;;6.55;;
52948;SDS011;38812;50.942;3.644;2023-02-02T01:31:31;27.73;;;5.80;;
52948;SDS011;38812;50.942;3.644;2023-02-02T01:33:56;21.70;;;6.60;;
52948;SDS011;38812;50.942;3.644;2023-02-02T01:36:22;33.25;;;6.22;;
52948;SDS011;38812;50.942;3.644;2023-02-02T01:38:48;27.08;;;4.80;;
52948;SDS011;38812;50.942;3.644;2023-02-02T01:41:16;23.98;;;5.25;;
52948;SDS011;38812;50.942;3.644;2023-02-02T01:46:11;20.83;;;5.72;;
52948;SDS011;38812;50.942;3.644;2023-02-02T01:48:40;14.90;;;4.32;;
52948;SDS011;38812;50.942;3.644;2023-02-02T01:51:08;35.92;;;4.50;;
52948;SDS011;38812;50.942;3.644;2023-02-02T01:53:47;20.35;;;3.90;;
52948;SDS011;38812;50.942;3.644;2023-02-02T01:56:21;23.98;;;3.55;;
52948;SDS011;38812;50.942;3.644;2023-02-02T01:58:52;17.15;;;3.88;;
52948;SDS011;38812;50.942;3.644;2023-02-02T02:01:18;24.40;;;3.83;;
52948;SDS011;38812;50.942;3.644;2023-02-02T02:03:43;29.75;;;5.30;;
52948;SDS011;38812;50.942;3.644;2023-02-02T02:06:13;21.40;;;3.83;;
52948;SDS011;38812;50.942;3.644;2023-02-02T02:11:28;18.20;;;4.13;;
52948;SDS011;38812;50.942;3.644;2023-02-02T02:13:55;25.45;;;3.78;;
52948;SDS011;38812;50.942;3.644;2023-02-02T02:16:57;27.48;;;3.72;;
52948;SDS011;38812;50.942;3.644;2023-02-02T02:34:17;13.57;;;3.67;;
52948;SDS011;38812;50.942;3.644;2023-02-02T02:36:50;20.73;;;3.80;;
52948;SDS011;38812;50.942;3.644;2023-02-02T02:39:26;21.20;;;4.30;;
52948;SDS011;38812;50.942;3.644;2023-02-02T02:42:03;36.67;;;4.60;;
52948;SDS011;38812;50.942;3.644;2023-02-02T02:44:33;25.88;;;4.47;;
52948;SDS011;38812;50.942;3.644;2023-02-02T02:47:00;21.70;;;5.22;;
52948;SDS011;38812;50.942;3.644;2023-02-02T02:49:26;21.25;;;3.70;;
52948;SDS011;38812;50.942;3.644;2023-02-02T02:51:53;27.60;;;4.65;;
52948;SDS011;38812;50.942;3.644;2023-02-02T02:54:21;35.15;;;4.50;;
52948;SDS011;38812;50.942;3.644;2023-02-02T02:57:14;21.75;;;3.95;;
52948;SDS011;38812;50.942;3.644;2023-02-02T02:59:57;25.00;;;3.53;;
52948;SDS011;38812;50.942;3.644;2023-02-02T03:05:22;26.33;;;3.75;;
52948;SDS011;38812;50.942;3.644;2023-02-02T03:07:52;19.70;;;4.10;;
52948;SDS011;38812;50.942;3.644;2023-02-02T03:10:27;27.08;;;5.07;;
52948;SDS011;38812;50.942;3.644;2023-02-02T03:12:54;25.27;;;5.50;;
52948;SDS011;38812;50.942;3.644;2023-02-02T03:15:20;16.35;;;3.97;;
52948;SDS011;38812;50.942;3.644;2023-02-02T03:17:46;18.15;;;3.70;;
52948;SDS011;38812;50.942;3.644;2023-02-02T03:20:14;20.73;;;3.90;;
52948;SDS011;38812;50.942;3.644;2023-02-02T03:22:40;18.70;;;3.80;;
52948;SDS011;38812;50.942;3.644;2023-02-02T03:25:05;19.75;;;3.92;;
52948;SDS011;38812;50.942;3.644;2023-02-02T03:27:31;21.25;;;3.75;;
52948;SDS011;38812;50.942;3.644;2023-02-02T03:29:57;24.50;;;4.88;;
52948;SDS011;38812;50.942;3.644;2023-02-02T03:32:23;17.50;;;4.40;;
52948;SDS011;38812;50.942;3.644;2023-02-02T03:34:49;19.55;;;4.00;;
52948;SDS011;38812;50.942;3.644;2023-02-02T03:37:14;18.88;;;3.22;;
52948;SDS011;38812;50.942;3.644;2023-02-02T03:39:39;19.27;;;4.15;;
52948;SDS011;38812;50.942;3.644;2023-02-02T03:42:05;27.40;;;4.53;;
52948;SDS011;38812;50.942;3.644;2023-02-02T03:44:30;26.65;;;4.07;;
52948;SDS011;38812;50.942;3.644;2023-02-02T03:46:55;16.83;;;3.40;;
52948;SDS011;38812;50.942;3.644;2023-02-02T03:49:21;18.08;;;3.95;;
52948;SDS011;38812;50.942;3.644;2023-02-02T03:51:46;19.13;;;3.45;;
52948;SDS011;38812;50.942;3.644;2023-02-02T03:54:12;18.95;;;3.85;;
52948;SDS011;38812;50.942;3.644;2023-02-02T03:56:38;16.15;;;3.42;;
52948;SDS011;38812;50.942;3.644;2023-02-02T03:59:04;26.70;;;5.55;;
52948;SDS011;38812;50.942;3.644;2023-02-02T04:01:29;20.75;;;2.92;;
52948;SDS011;38812;50.942;3.644;2023-02-02T04:03:55;17.50;;;3.03;;
52948;SDS011;38812;50.942;3.644;2023-02-02T04:06:22;22.80;;;5.05;;
52948;SDS011;38812;50.942;3.644;2023-02-02T04:08:48;20.38;;;3.10;;
52948;SDS011;38812;50.942;3.644;2023-02-02T04:11:14;20.90;;;3.30;;
52948;SDS011;38812;50.942;3.644;2023-02-02T04:13:40;19.63;;;3.53;;
52948;SDS011;38812;50.942;3.644;2023-02-02T04:16:07;20.58;;;3.03;;
52948;SDS011;38812;50.942;3.644;2023-02-02T04:18:32;20.60;;;3.92;;
52948;SDS011;38812;50.942;3.644;2023-02-02T04:20:58;18.50;;;3.67;;
52948;SDS011;38812;50.942;3.644;2023-02-02T04:23:25;14.13;;;2.70;;
52948;SDS011;38812;50.942;3.644;2023-02-02T04:25:52;12.95;;;3.88;;
52948;SDS011;38812;50.942;3.644;2023-02-02T04:28:17;16.25;;;3.38;;
52948;SDS011;38812;50.942;3.644;2023-02-02T04:30:43;17.98;;;3.30;;
52948;SDS011;38812;50.942;3.644;2023-02-02T04:33:08;20.70;;;3.50;;
52948;SDS011;38812;50.942;3.644;2023-02-02T04:35:34;23.85;;;3.60;;
52948;SDS011;38812;50.942;3.644;2023-02-02T04:37:59;14.68;;;3.38;;
52948;SDS011;38812;50.942;3.644;2023-02-02T04:40:24;15.63;;;2.88;;
52948;SDS011;38812;50.942;3.644;2023-02-02T04:42:50;20.05;;;2.75;;
52948;SDS011;38812;50.942;3.644;2023-02-02T04:45:15;22.17;;;3.67;;
52948;SDS011;38812;50.942;3.644;2023-02-02T04:47:41;22.75;;;3.90;;
52948;SDS011;38812;50.942;3.644;2023-02-02T04:50:06;21.67;;;3.85;;
52948;SDS011;38812;50.942;3.644;2023-02-02T04:52:32;19.65;;;4.15;;
52948;SDS011;38812;50.942;3.644;2023-02-02T04:54:57;14.65;;;2.85;;
52948;SDS011;38812;50.942;3.644;2023-02-02T04:57:23;22.73;;;3.67;;
52948;SDS011;38812;50.942;3.644;2023-02-02T04:59:49;18.10;;;4.05;;
52948;SDS011;38812;50.942;3.644;2023-02-02T05:02:15;16.38;;;2.80;;
52948;SDS011;38812;50.942;3.644;2023-02-02T05:04:40;22.15;;;4.20;;
52948;SDS011;38812;50.942;3.644;2023-02-02T05:07:05;19.38;;;3.53;;
52948;SDS011;38812;50.942;3.644;2023-02-02T05:09:31;14.35;;;3.80;;
52948;SDS011;38812;50.942;3.644;2023-02-02T05:11:56;25.45;;;4.47;;
52948;SDS011;38812;50.942;3.644;2023-02-02T05:14:21;23.85;;;3.53;;
52948;SDS011;38812;50.942;3.644;2023-02-02T05:16:47;30.58;;;5.90;;
52948;SDS011;38812;50.942;3.644;2023-02-02T05:19:14;23.45;;;4.32;;
52948;SDS011;38812;50.942;3.644;2023-02-02T05:21:41;28.38;;;4.95;;
52948;SDS011;38812;50.942;3.644;2023-02-02T05:24:10;18.48;;;4.30;;
52948;SDS011;38812;50.942;3.644;2023-02-02T05:26:36;18.42;;;4.45;;
52948;SDS011;38812;50.942;3.644;2023-02-02T05:29:02;32.13;;;6.85;;
52948;SDS011;38812;50.942;3.644;2023-02-02T05:31:28;22.42;;;4.53;;
52948;SDS011;38812;50.942;3.644;2023-02-02T05:33:55;19.98;;;4.65;;
52948;SDS011;38812;50.942;3.644;2023-02-02T05:36:20;21.00;;;5.00;;
52948;SDS011;38812;50.942;3.644;2023-02-02T05:38:46;17.67;;;4.28;;
52948;SDS011;38812;50.942;3.644;2023-02-02T05:41:11;16.95;;;4.10;;
52948;SDS011;38812;50.942;3.644;2023-02-02T05:43:36;26.92;;;3.30;;
52948;SDS011;38812;50.942;3.644;2023-02-02T05:46:02;13.82;;;3.00;;
52948;SDS011;38812;50.942;3.644;2023-02-02T05:48:27;17.55;;;3.33;;
52948;SDS011;38812;50.942;3.644;2023-02-02T05:51:03;22.40;;;3.25;;
52948;SDS011;38812;50.942;3.644;2023-02-02T05:53:31;18.52;;;3.78;;
52948;SDS011;38812;50.942;3.644;2023-02-02T05:55:57;19.35;;;3.60;;
52948;SDS011;38812;50.942;3.644;2023-02-02T05:58:23;16.67;;;3.05;;
52948;SDS011;38812;50.942;3.644;2023-02-02T06:00:48;24.27;;;4.50;;
52948;SDS011;38812;50.942;3.644;2023-02-02T06:03:13;20.77;;;3.80;;
52948;SDS011;38812;50.942;3.644;2023-02-02T06:05:39;19.92;;;4.07;;
52948;SDS011;38812;50.942;3.644;2023-02-02T06:08:04;16.65;;;4.07;;
52948;SDS011;38812;50.942;3.644;2023-02-02T06:10:30;15.48;;;2.83;;
52948;SDS011;38812;50.942;3.644;2023-02-02T06:12:56;26.67;;;3.70;;
52948;SDS011;38812;50.942;3.644;2023-02-02T06:15:22;24.88;;;5.60;;
52948;SDS011;38812;50.942;3.644;2023-02-02T06:17:48;18.05;;;3.63;;
52948;SDS011;38812;50.942;3.644;2023-02-02T06:20:14;15.23;;;3.17;;
52948;SDS011;38812;50.942;3.644;2023-02-02T06:22:39;11.25;;;2.92;;
52948;SDS011;38812;50.942;3.644;2023-02-02T06:25:05;30.10;;;3.72;;
52948;SDS011;38812;50.942;3.644;2023-02-02T06:27:32;23.23;;;3.97;;
52948;SDS011;38812;50.942;3.644;2023-02-02T06:29:57;26.63;;;5.25;;
52948;SDS011;38812;50.942;3.644;2023-02-02T06:32:23;20.30;;;4.35;;
52948;SDS011;38812;50.942;3.644;2023-02-02T06:34:48;17.38;;;2.95;;
52948;SDS011;38812;50.942;3.644;2023-02-02T06:37:14;15.05;;;2.83;;
52948;SDS011;38812;50.942;3.644;2023-02-02T06:39:39;11.70;;;3.50;;
52948;SDS011;38812;50.942;3.644;2023-02-02T06:42:05;12.88;;;2.67;;
52948;SDS011;38812;50.942;3.644;2023-02-02T06:44:30;16.95;;;3.65;;
52948;SDS011;38812;50.942;3.644;2023-02-02T06:46:55;11.82;;;2.53;;
52948;SDS011;38812;50.942;3.644;2023-02-02T06:49:21;17.38;;;3.28;;
52948;SDS011;38812;50.942;3.644;2023-02-02T06:51:46;12.68;;;2.78;;
52948;SDS011;38812;50.942;3.644;2023-02-02T06:54:12;10.57;;;2.45;;
52948;SDS011;38812;50.942;3.644;2023-02-02T06:56:38;18.55;;;3.20;;
52948;SDS011;38812;50.942;3.644;2023-02-02T06:59:04;20.77;;;3.97;;
52948;SDS011;38812;50.942;3.644;2023-02-02T07:01:30;15.13;;;2.95;;
52948;SDS011;38812;50.942;3.644;2023-02-02T07:03:55;16.95;;;3.83;;
52948;SDS011;38812;50.942;3.644;2023-02-02T07:06:22;20.85;;;3.65;;
52948;SDS011;38812;50.942;3.644;2023-02-02T07:08:49;18.65;;;3.60;;
52948;SDS011;38812;50.942;3.644;2023-02-02T07:11:15;16.90;;;4.05;;
52948;SDS011;38812;50.942;3.644;2023-02-02T07:13:42;11.43;;;3.72;;
52948;SDS011;38812;50.942;3.644;2023-02-02T07:16:11;13.48;;;4.05;;
52948;SDS011;38812;50.942;3.644;2023-02-02T07:18:38;18.30;;;3.33;;
52948;SDS011;38812;50.942;3.644;2023-02-02T07:21:04;20.02;;;3.72;;
52948;SDS011;38812;50.942;3.644;2023-02-02T07:23:29;17.27;;;3.67;;
52948;SDS011;38812;50.942;3.644;2023-02-02T07:26:03;13.43;;;3.63;;
52948;SDS011;38812;50.942;3.644;2023-02-02T07:28:30;16.67;;;4.00;;
52948;SDS011;38812;50.942;3.644;2023-02-02T07:30:56;9.35;;;3.33;;
52948;SDS011;38812;50.942;3.644;2023-02-02T07:33:21;18.73;;;3.97;;
52948;SDS011;38812;50.942;3.644;2023-02-02T07:35:47;15.40;;;3.80;;
52948;SDS011;38812;50.942;3.644;2023-02-02T07:38:12;11.05;;;2.20;;
52948;SDS011;38812;50.942;3.644;2023-02-02T07:40:38;13.93;;;2.35;;
52948;SDS011;38812;50.942;3.644;2023-02-02T07:43:03;11.05;;;1.95;;
52948;SDS011;38812;50.942;3.644;2023-02-02T07:45:29;9.48;;;2.28;;
52948;SDS011;38812;50.942;3.644;2023-02-02T07:47:58;17.33;;;3.00;;
52948;SDS011;38812;50.942;3.644;2023-02-02T07:50:24;13.65;;;2.40;;
52948;SDS011;38812;50.942;3.644;2023-02-02T07:52:50;9.55;;;2.13;;
52948;SDS011;38812;50.942;3.644;2023-02-02T07:55:16;15.43;;;3.90;;
52948;SDS011;38812;50.942;3.644;2023-02-02T07:57:42;10.68;;;2.42;;
52948;SDS011;38812;50.942;3.644;2023-02-02T08:00:07;14.02;;;2.45;;
52948;SDS011;38812;50.942;3.644;2023-02-02T08:02:33;13.88;;;2.22;;
52948;SDS011;38812;50.942;3.644;2023-02-02T08:04:59;11.45;;;2.35;;
52948;SDS011;38812;50.942;3.644;2023-02-02T08:07:24;15.95;;;3.20;;
52948;SDS011;38812;50.942;3.644;2023-02-02T08:09:50;15.15;;;2.58;;
52948;SDS011;38812;50.942;3.644;2023-02-02T08:12:15;9.25;;;2.22;;
52948;SDS011;38812;50.942;3.644;2023-02-02T08:14:41;15.18;;;3.33;;
52948;SDS011;38812;50.942;3.644;2023-02-02T08:17:06;23.33;;;3.13;;
52948;SDS011;38812;50.942;3.644;2023-02-02T08:19:32;9.35;;;2.30;;
52948;SDS011;38812;50.942;3.644;2023-02-02T08:21:57;18.25;;;2.42;;
52948;SDS011;38812;50.942;3.644;2023-02-02T08:24:23;14.23;;;3.13;;
52948;SDS011;38812;50.942;3.644;2023-02-02T08:26:48;11.52;;;1.95;;
52948;SDS011;38812;50.942;3.644;2023-02-02T08:29:14;11.07;;;2.10;;
52948;SDS011;38812;50.942;3.644;2023-02-02T08:31:41;16.08;;;3.17;;
52948;SDS011;38812;50.942;3.644;2023-02-02T08:34:08;11.60;;;2.97;;
52948;SDS011;38812;50.942;3.644;2023-02-02T08:36:34;14.98;;;2.35;;
52948;SDS011;38812;50.942;3.644;2023-02-02T08:39:00;20.25;;;3.67;;
52948;SDS011;38812;50.942;3.644;2023-02-02T08:41:27;26.75;;;4.95;;
52948;SDS011;38812;50.942;3.644;2023-02-02T08:43:53;15.00;;;2.00;;
52948;SDS011;38812;50.942;3.644;2023-02-02T08:46:18;12.35;;;2.78;;
52948;SDS011;38812;50.942;3.644;2023-02-02T08:48:44;16.10;;;3.20;;
52948;SDS011;38812;50.942;3.644;2023-02-02T08:51:10;18.30;;;3.15;;
52948;SDS011;38812;50.942;3.644;2023-02-02T08:53:38;9.65;;;2.78;;
52948;SDS011;38812;50.942;3.644;2023-02-02T08:56:11;14.35;;;2.53;;
52948;SDS011;38812;50.942;3.644;2023-02-02T08:58:51;10.60;;;2.60;;
52948;SDS011;38812;50.942;3.644;2023-02-02T09:01:20;16.85;;;2.85;;
52948;SDS011;38812;50.942;3.644;2023-02-02T09:03:47;22.13;;;4.13;;
52948;SDS011;38812;50.942;3.644;2023-02-02T09:06:14;13.07;;;3.47;;
52948;SDS011;38812;50.942;3.644;2023-02-02T09:08:41;11.20;;;2.70;;
52948;SDS011;38812;50.942;3.644;2023-02-02T09:11:11;11.15;;;2.65;;
52948;SDS011;38812;50.942;3.644;2023-02-02T09:13:38;10.60;;;2.28;;
52948;SDS011;38812;50.942;3.644;2023-02-02T09:16:05;8.25;;;2.55;;
52948;SDS011;38812;50.942;3.644;2023-02-02T09:18:33;13.82;;;2.50;;
52948;SDS011;38812;50.942;3.644;2023-02-02T09:20:59;13.07;;;2.35;;
52948;SDS011;38812;50.942;3.644;2023-02-02T09:23:28;14.98;;;2.35;;
52948;SDS011;38812;50.942;3.644;2023-02-02T09:26:07;10.27;;;2.13;;
52948;SDS011;38812;50.942;3.644;2023-02-02T09:28:34;16.58;;;2.85;;
52948;SDS011;38812;50.942;3.644;2023-02-02T09:31:00;17.52;;;2.60;;
52948;SDS011;38812;50.942;3.644;2023-02-02T09:33:26;12.95;;;2.30;;
52948;SDS011;38812;50.942;3.644;2023-02-02T09:35:52;26.48;;;6.13;;
52948;SDS011;38812;50.942;3.644;2023-02-02T09:38:17;17.80;;;3.83;;
52948;SDS011;38812;50.942;3.644;2023-02-02T09:40:42;16.13;;;2.85;;
52948;SDS011;38812;50.942;3.644;2023-02-02T09:45:51;19.70;;;2.60;;
52948;SDS011;38812;50.942;3.644;2023-02-02T09:48:33;16.48;;;3.55;;
52948;SDS011;38812;50.942;3.644;2023-02-02T09:51:12;17.52;;;2.25;;
52948;SDS011;38812;50.942;3.644;2023-02-02T09:53:46;17.83;;;3.15;;
52948;SDS011;38812;50.942;3.644;2023-02-02T09:56:45;14.93;;;2.33;;
52948;SDS011;38812;50.942;3.644;2023-02-02T09:59:16;10.88;;;2.97;;
52948;SDS011;38812;50.942;3.644;2023-02-02T10:01:44;22.60;;;3.40;;
52948;SDS011;38812;50.942;3.644;2023-02-02T10:04:15;16.42;;;2.63;;
52948;SDS011;38812;50.942;3.644;2023-02-02T10:06:49;17.75;;;2.85;;
52948;SDS011;38812;50.942;3.644;2023-02-02T10:23:15;19.23;;;3.85;;
52948;SDS011;38812;50.942;3.644;2023-02-02T10:25:59;15.30;;;2.70;;
52948;SDS011;38812;50.942;3.644;2023-02-02T10:28:40;14.27;;;3.45;;
52948;SDS011;38812;50.942;3.644;2023-02-02T10:31:10;23.02;;;2.83;;
52948;SDS011;38812;50.942;3.644;2023-02-02T10:33:44;20.27;;;2.40;;
52948;SDS011;38812;50.942;3.644;2023-02-02T10:36:30;22.75;;;3.17;;
52948;SDS011;38812;50.942;3.644;2023-02-02T10:42:14;7.37;;;2.37;;
52948;SDS011;38812;50.942;3.644;2023-02-02T10:44:55;7.03;;;3.00;;
52948;SDS011;38812;50.942;3.644;2023-02-02T10:47:25;12.88;;;2.67;;
52948;SDS011;38812;50.942;3.644;2023-02-02T10:50:15;7.55;;;1.90;;
52948;SDS011;38812;50.942;3.644;2023-02-02T10:53:02;12.20;;;2.92;;
52948;SDS011;38812;50.942;3.644;2023-02-02T10:55:37;16.23;;;2.55;;
52948;SDS011;38812;50.942;3.644;2023-02-02T11:03:15;15.13;;;2.33;;
52948;SDS011;38812;50.942;3.644;2023-02-02T11:05:44;7.85;;;1.65;;
52948;SDS011;38812;50.942;3.644;2023-02-02T11:08:30;9.80;;;2.58;;
52948;SDS011;38812;50.942;3.644;2023-02-02T11:10:59;16.60;;;2.88;;
52948;SDS011;38812;50.942;3.644;2023-02-02T11:13:49;12.32;;;2.22;;
52948;SDS011;38812;50.942;3.644;2023-02-02T11:16:23;11.48;;;2.30;;
52948;SDS011;38812;50.942;3.644;2023-02-02T11:18:51;11.98;;;2.35;;
52948;SDS011;38812;50.942;3.644;2023-02-02T11:21:30;17.33;;;2.30;;
52948;SDS011;38812;50.942;3.644;2023-02-02T11:26:49;9.77;;;2.03;;
52948;SDS011;38812;50.942;3.644;2023-02-02T11:29:22;9.57;;;2.30;;
52948;SDS011;38812;50.942;3.644;2023-02-02T11:31:57;8.13;;;2.38;;
52948;SDS011;38812;50.942;3.644;2023-02-02T11:34:26;8.63;;;2.05;;
52948;SDS011;38812;50.942;3.644;2023-02-02T11:36:56;7.93;;;2.75;;
52948;SDS011;38812;50.942;3.644;2023-02-02T11:39:48;13.02;;;2.00;;
52948;SDS011;38812;50.942;3.644;2023-02-02T11:44:49;10.13;;;2.17;;
52948;SDS011;38812;50.942;3.644;2023-02-02T11:47:23;9.05;;;1.83;;
52948;SDS011;38812;50.942;3.644;2023-02-02T11:49:50;18.48;;;2.03;;
52948;SDS011;38812;50.942;3.644;2023-02-02T11:52:19;18.75;;;2.63;;
52948;SDS011;38812;50.942;3.644;2023-02-02T11:54:48;14.13;;;2.30;;
52948;SDS011;38812;50.942;3.644;2023-02-02T11:57:17;8.52;;;1.73;;
52948;SDS011;38812;50.942;3.644;2023-02-02T11:59:44;10.25;;;1.77;;
52948;SDS011;38812;50.942;3.644;2023-02-02T12:02:21;12.50;;;2.08;;
52948;SDS011;38812;50.942;3.644;2023-02-02T12:04:53;7.88;;;1.50;;
52948;SDS011;38812;50.942;3.644;2023-02-02T12:07:42;10.63;;;2.60;;
52948;SDS011;38812;50.942;3.644;2023-02-02T12:10:28;9.93;;;1.88;;
52948;SDS011;38812;50.942;3.644;2023-02-02T12:13:08;6.93;;;1.48;;
52948;SDS011;38812;50.942;3.644;2023-02-02T12:18:30;9.00;;;1.45;;
52948;SDS011;38812;50.942;3.644;2023-02-02T12:21:20;9.38;;;1.70;;
52948;SDS011;38812;50.942;3.644;2023-02-02T12:26:26;10.13;;;1.90;;
52948;SDS011;38812;50.942;3.644;2023-02-02T12:34:31;10.68;;;1.98;;
52948;SDS011;38812;50.942;3.644;2023-02-02T12:56:34;11.77;;;1.80;;
52948;SDS011;38812;50.942;3.644;2023-02-02T13:02:14;16.55;;;1.92;;
52948;SDS011;38812;50.942;3.644;2023-02-02T13:08:02;10.32;;;2.25;;
52948;SDS011;38812;50.942;3.644;2023-02-02T13:13:13;4.22;;;1.85;;
52948;SDS011;38812;50.942;3.644;2023-02-02T13:15:45;7.47;;;1.95;;
52948;SDS011;38812;50.942;3.644;2023-02-02T13:21:10;11.07;;;2.60;;
52948;SDS011;38812;50.942;3.644;2023-02-02T13:23:50;6.45;;;1.70;;
52948;SDS011;38812;50.942;3.644;2023-02-02T13:26:30;7.80;;;1.80;;
52948;SDS011;38812;50.942;3.644;2023-02-02T13:29:05;7.00;;;1.83;;
52948;SDS011;38812;50.942;3.644;2023-02-02T13:36:42;11.75;;;1.50;;
52948;SDS011;38812;50.942;3.644;2023-02-02T13:39:17;14.80;;;1.73;;
52948;SDS011;38812;50.942;3.644;2023-02-02T13:41:47;8.15;;;1.42;;
52948;SDS011;38812;50.942;3.644;2023-02-02T13:44:28;6.00;;;2.05;;
52948;SDS011;38812;50.942;3.644;2023-02-02T13:49:45;14.32;;;3.58;;
52948;SDS011;38812;50.942;3.644;2023-02-02T14:00:24;7.60;;;1.80;;
52948;SDS011;38812;50.942;3.644;2023-02-02T14:02:59;8.45;;;1.65;;
52948;SDS011;38812;50.942;3.644;2023-02-02T14:05:30;7.35;;;2.38;;
52948;SDS011;38812;50.942;3.644;2023-02-02T14:10:28;7.78;;;2.88;;
52948;SDS011;38812;50.942;3.644;2023-02-02T14:13:04;14.98;;;1.75;;
52948;SDS011;38812;50.942;3.644;2023-02-02T14:15:54;10.60;;;2.22;;
52948;SDS011;38812;50.942;3.644;2023-02-02T14:19:10;8.30;;;2.60;;
52948;SDS011;38812;50.942;3.644;2023-02-02T14:21:29;8.20;;;2.00;;
52948;SDS011;38812;50.942;3.644;2023-02-02T14:26:54;7.10;;;1.95;;
52948;SDS011;38812;50.942;3.644;2023-02-02T14:34:39;8.98;;;1.98;;
52948;SDS011;38812;50.942;3.644;2023-02-02T14:39:40;3.85;;;1.23;;
52948;SDS011;38812;50.942;3.644;2023-02-02T14:45:48;7.68;;;1.85;;
52948;SDS011;38812;50.942;3.644;2023-02-02T14:48:39;5.78;;;1.88;;
52948;SDS011;38812;50.942;3.644;2023-02-02T14:51:12;10.20;;;1.70;;
52948;SDS011;38812;50.942;3.644;2023-02-02T14:53:54;8.30;;;1.42;;
52948;SDS011;38812;50.942;3.644;2023-02-02T14:59:02;4.63;;;2.05;;
52948;SDS011;38812;50.942;3.644;2023-02-02T15:01:30;12.18;;;3.30;;
52948;SDS011;38812;50.942;3.644;2023-02-02T15:06:45;5.43;;;2.15;;
52948;SDS011;38812;50.942;3.644;2023-02-02T15:19:51;11.68;;;2.97;;
52948;SDS011;38812;50.942;3.644;2023-02-02T15:25:02;8.75;;;2.53;;
52948;SDS011;38812;50.942;3.644;2023-02-02T15:27:36;16.65;;;4.30;;
52948;SDS011;38812;50.942;3.644;2023-02-02T15:30:03;16.85;;;6.18;;
52948;SDS011;38812;50.942;3.644;2023-02-02T15:32:39;14.77;;;5.75;;
52948;SDS011;38812;50.942;3.644;2023-02-02T15:35:06;12.23;;;4.20;;
52948;SDS011;38812;50.942;3.644;2023-02-02T15:37:36;11.27;;;4.28;;
52948;SDS011;38812;50.942;3.644;2023-02-02T15:40:12;11.35;;;3.45;;
52948;SDS011;38812;50.942;3.644;2023-02-02T15:42:41;10.25;;;4.43;;
52948;SDS011;38812;50.942;3.644;2023-02-02T15:47:56;5.95;;;2.22;;
52948;SDS011;38812;50.942;3.644;2023-02-02T15:50:23;8.90;;;2.03;;
52948;SDS011;38812;50.942;3.644;2023-02-02T15:52:49;5.63;;;1.50;;
52948;SDS011;38812;50.942;3.644;2023-02-02T15:57:46;7.50;;;1.60;;
52948;SDS011;38812;50.942;3.644;2023-02-02T16:00:32;7.65;;;1.90;;
52948;SDS011;38812;50.942;3.644;2023-02-02T16:07:57;10.57;;;2.40;;
52948;SDS011;38812;50.942;3.644;2023-02-02T16:10:24;5.97;;;1.92;;
52948;SDS011;38812;50.942;3.644;2023-02-02T16:12:50;5.88;;;2.20;;
52948;SDS011;38812;50.942;3.644;2023-02-02T16:15:22;9.10;;;2.63;;
52948;SDS011;38812;50.942;3.644;2023-02-02T16:18:00;16.08;;;2.63;;
52948;SDS011;38812;50.942;3.644;2023-02-02T16:20:29;5.20;;;1.95;;
52948;SDS011;38812;50.942;3.644;2023-02-02T16:22:57;12.35;;;2.15;;
52948;SDS011;38812;50.942;3.644;2023-02-02T16:25:26;8.02;;;1.90;;
52948;SDS011;38812;50.942;3.644;2023-02-02T16:27:54;11.93;;;1.95;;
52948;SDS011;38812;50.942;3.644;2023-02-02T16:30:28;7.57;;;1.60;;
52948;SDS011;38812;50.942;3.644;2023-02-02T16:32:55;5.97;;;1.83;;
52948;SDS011;38812;50.942;3.644;2023-02-02T16:35:37;14.95;;;2.40;;
52948;SDS011;38812;50.942;3.644;2023-02-02T16:38:12;9.10;;;2.30;;
52948;SDS011;38812;50.942;3.644;2023-02-02T16:41:00;11.07;;;2.35;;
52948;SDS011;38812;50.942;3.644;2023-02-02T16:46:00;12.60;;;2.17;;
52948;SDS011;38812;50.942;3.644;2023-02-02T16:48:33;8.43;;;2.40;;
52948;SDS011;38812;50.942;3.644;2023-02-02T16:53:41;9.63;;;2.72;;
52948;SDS011;38812;50.942;3.644;2023-02-02T16:56:09;27.10;;;9.43;;
52948;SDS011;38812;50.942;3.644;2023-02-02T16:58:48;10.32;;;2.85;;
52948;SDS011;38812;50.942;3.644;2023-02-02T17:01:14;18.95;;;5.53;;
52948;SDS011;38812;50.942;3.644;2023-02-02T17:03:43;17.85;;;6.20;;
52948;SDS011;38812;50.942;3.644;2023-02-02T17:06:13;17.35;;;6.07;;
52948;SDS011;38812;50.942;3.644;2023-02-02T17:08:38;17.25;;;7.75;;
52948;SDS011;38812;50.942;3.644;2023-02-02T17:13:40;9.07;;;2.03;;
52948;SDS011;38812;50.942;3.644;2023-02-02T17:16:08;8.35;;;3.00;;
52948;SDS011;38812;50.942;3.644;2023-02-02T17:18:36;8.32;;;2.63;;
52948;SDS011;38812;50.942;3.644;2023-02-02T17:21:02;7.85;;;3.28;;
52948;SDS011;38812;50.942;3.644;2023-02-02T17:23:31;13.18;;;5.25;;
52948;SDS011;38812;50.942;3.644;2023-02-02T17:26:00;17.08;;;4.10;;
52948;SDS011;38812;50.942;3.644;2023-02-02T17:28:27;25.63;;;12.25;;
52948;SDS011;38812;50.942;3.644;2023-02-02T17:31:00;17.70;;;6.57;;
52948;SDS011;38812;50.942;3.644;2023-02-02T17:33:29;10.45;;;4.57;;